Bookmark and Share
Track history (hours):
 

Brightway

Last reported at 2014-Apr-19 06:33 UTC. Time now 2014-Apr-25 05:58 UTC.
Position N 50°10' W 001°57'.

Length 274 m; draft 9.9 m.

Type: Tanker. MMSI: 566422000.

NotesDate/timePositionNaut miles runAvg speedWind from/ knotsBaromVisibWave heightAir tempDewpointWater temp
2014-Apr-19 06:33N 50°10' W 001°57'1414.3
2014-Apr-19 05:34N 50°14' W 001°36'1515.4
2014-Apr-19 04:34N 50°18' W 001°13'1615.6
2014-Apr-19 03:33N 50°22' W 000°49'1414.2
2014-Apr-19 02:34N 50°26' W 000°28'1312.9
2014-Apr-19 01:34N 50°29' W 000°08'1211.6
2014-Apr-19 00:33N 50°32' E 000°10'1110.5
2014-Apr-18 23:33N 50°35' E 000°25'1010.2
2014-Apr-18 22:34N 50°39' E 000°40'1211.7
2014-Apr-18 21:33N 50°45' E 000°56'1413.6
2014-Apr-18 20:34N 50°53' E 001°14'1514.6
2014-Apr-18 19:34N 51°03' E 001°30'1313.5
2014-Apr-18 18:33N 51°13' E 001°45'1211.8
2014-Apr-18 17:33N 51°22' E 001°55'1110.5
2014-Apr-18 16:33N 51°31' E 002°05'1010.3
2014-Apr-18 15:33N 51°39' E 002°17'1110.5
2014-Apr-18 14:33N 51°46' E 002°28'4611.4
2014-Apr-18 10:33N 52°03' E 003°37'1212.5
2014-Apr-18 09:33N 52°01' E 003°57'8 7.9
2014-Apr-18 08:33N 51°58' E 004°08'2 1.5
2014-Apr-18 07:31N 51°56' E 004°10'0 0.0
2014-Apr-18 06:31N 51°56' E 004°10'0 0.0
2014-Apr-18 05:31N 51°56' E 004°10'0 0.0
2014-Apr-18 04:31N 51°56' E 004°10'0 0.0
2014-Apr-18 03:31N 51°56' E 004°10'0 0.0
2014-Apr-18 02:34N 51°56' E 004°10'0 0.0
2014-Apr-18 01:31N 51°56' E 004°10'0 0.0
2014-Apr-18 00:31N 51°56' E 004°10'0 0.0
2014-Apr-17 23:31N 51°56' E 004°10'0 0.0
2014-Apr-17 22:31N 51°56' E 004°10'0 0.0
2014-Apr-17 21:31N 51°56' E 004°10'0 0.0
2014-Apr-17 20:31N 51°56' E 004°10'0 0.0
2014-Apr-17 19:31N 51°56' E 004°10'0 0.0
2014-Apr-17 18:31N 51°56' E 004°10'0 0.0
2014-Apr-17 17:28N 51°56' E 004°10'0 0.0
2014-Apr-17 16:31N 51°56' E 004°10'0 0.0
2014-Apr-17 15:31N 51°56' E 004°10'0 0.0
2014-Apr-17 14:04N 51°56' E 004°10'0 0.0
2014-Apr-17 13:28N 51°56' E 004°10'0 0.0
2014-Apr-17 12:13N 51°56' E 004°10'0 0.0
2014-Apr-17 11:04N 51°56' E 004°10'0 0.0
2014-Apr-17 10:22N 51°56' E 004°10'0 0.0
2014-Apr-17 09:04N 51°56' E 004°10'0 0.0
2014-Apr-17 08:31N 51°56' E 004°10'0 0.0
2014-Apr-17 07:25N 51°56' E 004°10'0 0.0
2014-Apr-17 06:28N 51°56' E 004°10'0 0.0
2014-Apr-17 05:31N 51°56' E 004°10'0 0.0
2014-Apr-17 04:16N 51°56' E 004°10'0 0.0
2014-Apr-17 03:31N 51°56' E 004°10'0 0.0
2014-Apr-17 02:28N 51°56' E 004°10'0 0.0
2014-Apr-17 01:31N 51°56' E 004°10'0 0.0
2014-Apr-17 00:28N 51°56' E 004°10'0 0.0
2014-Apr-16 23:28N 51°56' E 004°10'0 0.0
2014-Apr-16 22:31N 51°56' E 004°10'0 0.0
2014-Apr-16 21:28N 51°56' E 004°10'0 0.0
2014-Apr-16 20:04N 51°56' E 004°10'0 0.3
2014-Apr-16 19:33N 51°57' E 004°10'4 4.3
2014-Apr-16 18:33N 51°59' E 004°04'1111.5
2014-Apr-16 17:33N 52°01' E 003°46'9 8.9
2014-Apr-16 16:33N 52°00' E 003°31'1212.3
2014-Apr-16 15:33N 51°55' E 003°13'6 1.2
2014-Apr-16 10:33N 51°52' E 003°05'10 9.6
2014-Apr-16 09:30N 51°49' E 002°49'9 9.1
2014-Apr-16 08:33N 51°46' E 002°36'9 9.2
2014-Apr-16 07:33N 51°39' E 002°27'10 9.9
2014-Apr-16 06:33N 51°31' E 002°16'1010.1
2014-Apr-16 05:34N 51°23' E 002°07'1010.0
2014-Apr-16 04:33N 51°13' E 002°03'1111.2
2014-Apr-16 03:33N 51°08' E 001°48'1212.2
2014-Apr-16 02:33N 50°59' E 001°34'1412.6
2014-Apr-16 01:25N 50°47' E 001°23'1011.9
2014-Apr-16 00:33N 50°38' E 001°14'1211.9
2014-Apr-15 23:33N 50°30' E 000°60'1111.4
2014-Apr-15 22:33N 50°27' E 000°43'1312.3
2014-Apr-15 21:31N 50°23' E 000°24'5811.7
2014-Apr-15 16:33N 50°07' W 001°04'8 8.4
2014-Apr-15 15:33N 50°05' W 001°16'40 6.6
2014-Apr-15 09:29N 49°55' W 002°16'  

Dump ship's entire track history

sailing weather and tide predictions

Brightway — 9V8755 — position and weather